createdAt,value
2019-03-27T00:00:04.420Z,6.80
2019-03-27T00:02:35.330Z,6.90
2019-03-27T00:05:06.350Z,6.90
2019-03-27T00:07:37.093Z,7.00
2019-03-27T00:10:08.983Z,7.00
2019-03-27T00:12:39.767Z,6.90
2019-03-27T00:15:13.656Z,6.90
2019-03-27T00:17:44.147Z,6.90
2019-03-27T00:20:15.269Z,6.80
2019-03-27T00:22:46.105Z,6.70
2019-03-27T00:25:16.970Z,6.70
2019-03-27T00:27:47.663Z,6.60
2019-03-27T00:30:19.660Z,6.60
2019-03-27T00:32:50.407Z,6.60
2019-03-27T00:35:21.206Z,6.50
2019-03-27T00:37:51.921Z,6.50
2019-03-27T00:40:22.694Z,6.40
2019-03-27T00:42:53.405Z,6.30
2019-03-27T00:45:26.720Z,6.20
2019-03-27T00:47:56.338Z,6.10
2019-03-27T00:50:27.049Z,6.00
2019-03-27T00:52:57.656Z,5.80
2019-03-27T00:55:28.346Z,5.70
2019-03-27T00:57:59.074Z,5.40
2019-03-27T01:00:35.401Z,5.20
2019-03-27T01:03:06.111Z,5.10
2019-03-27T01:05:36.850Z,4.90
2019-03-27T01:08:07.641Z,4.80
2019-03-27T01:10:38.433Z,4.70
2019-03-27T01:13:09.138Z,4.50
2019-03-27T01:15:40.387Z,4.50
2019-03-27T01:18:11.219Z,4.50
2019-03-27T01:20:41.954Z,4.60
2019-03-27T01:23:12.773Z,4.80
2019-03-27T01:25:43.538Z,4.90
2019-03-27T01:28:14.588Z,5.00
2019-03-27T01:30:45.253Z,5.00
2019-03-27T01:33:15.951Z,5.00
2019-03-27T01:35:46.669Z,5.00
2019-03-27T01:38:17.351Z,5.00
2019-03-27T01:40:48.034Z,5.00
2019-03-27T01:43:18.677Z,4.90
2019-03-27T01:45:53.166Z,4.80
2019-03-27T01:48:21.954Z,4.80
2019-03-27T01:50:52.838Z,4.70
2019-03-27T01:53:23.549Z,4.80
2019-03-27T01:55:54.391Z,4.80
2019-03-27T01:58:25.156Z,4.90
2019-03-27T02:00:55.931Z,5.00
2019-03-27T02:03:26.675Z,5.00
2019-03-27T02:05:57.491Z,5.00
2019-03-27T02:08:28.367Z,5.00
2019-03-27T02:10:59.078Z,4.90
2019-03-27T02:13:29.884Z,4.90
2019-03-27T02:16:06.722Z,4.80
2019-03-27T02:18:32.996Z,4.70
2019-03-27T02:21:03.899Z,4.70
2019-03-27T02:23:34.762Z,4.70
2019-03-27T02:26:05.606Z,4.80
2019-03-27T02:28:36.380Z,5.00
2019-03-27T02:31:07.202Z,5.10
2019-03-27T02:33:37.998Z,5.10
2019-03-27T02:36:08.784Z,5.00
2019-03-27T02:38:39.622Z,5.00
2019-03-27T02:41:10.400Z,5.00
2019-03-27T02:43:41.171Z,5.00
2019-03-27T02:46:24.352Z,5.00
2019-03-27T02:48:44.171Z,4.90
2019-03-27T02:51:15.072Z,4.90
2019-03-27T02:53:45.895Z,4.90
2019-03-27T02:56:16.750Z,4.80
2019-03-27T02:58:47.549Z,4.80
2019-03-27T03:01:18.266Z,4.80
2019-03-27T03:03:49.073Z,4.70
2019-03-27T03:06:19.727Z,4.70
2019-03-27T03:08:50.354Z,4.60
2019-03-27T03:11:20.989Z,4.50
2019-03-27T03:13:51.703Z,4.40
2019-03-27T03:16:22.450Z,4.30
2019-03-27T03:18:53.237Z,4.30
2019-03-27T03:21:24.137Z,4.30
2019-03-27T03:23:54.750Z,4.30
2019-03-27T03:26:25.703Z,4.40
2019-03-27T03:28:56.356Z,4.40
2019-03-27T03:31:27.073Z,4.40
2019-03-27T03:33:57.968Z,4.50
2019-03-27T03:36:28.840Z,4.50
2019-03-27T03:38:59.614Z,4.50
2019-03-27T03:41:30.463Z,4.50
2019-03-27T03:44:01.239Z,4.60
2019-03-27T03:46:31.963Z,4.70
2019-03-27T03:49:04.733Z,4.70
2019-03-27T03:51:38.974Z,4.80
2019-03-27T03:54:10.447Z,4.90
2019-03-27T03:56:43.028Z,5.10
2019-03-27T03:59:15.650Z,5.10
2019-03-27T04:01:50.443Z,5.20
2019-03-27T04:04:23.285Z,5.20
2019-03-27T04:06:54.015Z,5.30
2019-03-27T04:09:24.756Z,5.40
2019-03-27T04:11:55.623Z,5.30
2019-03-27T04:14:26.430Z,5.30
2019-03-27T04:17:15.512Z,5.30
2019-03-27T04:19:30.441Z,5.30
2019-03-27T04:22:01.291Z,5.30
2019-03-27T04:24:32.020Z,5.30
2019-03-27T04:27:02.681Z,5.30
2019-03-27T04:29:33.476Z,5.20
2019-03-27T04:32:04.246Z,5.00
2019-03-27T04:34:35.166Z,4.90
2019-03-27T04:37:05.979Z,4.90
2019-03-27T04:39:36.714Z,4.80
2019-03-27T04:42:07.499Z,4.90
2019-03-27T04:44:38.285Z,4.90
2019-03-27T04:47:09.003Z,5.00
2019-03-27T04:49:39.801Z,5.00
2019-03-27T04:52:10.598Z,5.10
2019-03-27T04:54:41.214Z,5.10
2019-03-27T04:57:12.022Z,5.20
2019-03-27T04:59:42.717Z,5.20
2019-03-27T05:02:13.318Z,5.10
2019-03-27T05:04:44.229Z,5.00
2019-03-27T05:07:15.042Z,5.00
2019-03-27T05:09:45.778Z,5.00
2019-03-27T05:12:16.625Z,4.90
2019-03-27T05:14:47.386Z,4.90
2019-03-27T05:17:18.227Z,4.90
2019-03-27T05:19:49.030Z,4.90
2019-03-27T05:22:19.794Z,4.90
2019-03-27T05:24:50.642Z,4.70
2019-03-27T05:27:21.417Z,4.70
2019-03-27T05:29:52.082Z,4.70
2019-03-27T05:32:22.711Z,4.70
2019-03-27T05:34:53.442Z,4.70
2019-03-27T05:37:24.349Z,4.80
2019-03-27T05:39:55.185Z,4.90
2019-03-27T05:42:25.928Z,5.10
2019-03-27T05:44:56.705Z,5.30
2019-03-27T05:47:27.438Z,5.50
2019-03-27T05:49:58.240Z,5.70
2019-03-27T05:52:29.029Z,5.80
2019-03-27T05:54:59.773Z,5.90
2019-03-27T05:57:30.868Z,6.00
2019-03-27T06:00:01.676Z,6.10
2019-03-27T06:02:32.345Z,6.10
2019-03-27T06:05:04.091Z,6.20
2019-03-27T06:07:34.931Z,6.20
2019-03-27T06:10:05.970Z,6.30
2019-03-27T06:12:36.812Z,6.30
2019-03-27T06:15:13.155Z,6.40
2019-03-27T06:17:43.946Z,6.50
2019-03-27T06:20:14.662Z,6.70
2019-03-27T06:22:45.292Z,6.80
2019-03-27T06:25:16.052Z,7.00
2019-03-27T06:27:46.850Z,7.10
2019-03-27T06:30:17.475Z,7.30
2019-03-27T06:32:48.167Z,7.40
2019-03-27T06:35:20.303Z,7.60
2019-03-27T06:37:51.317Z,7.70
2019-03-27T06:40:22.082Z,7.80
2019-03-27T06:42:52.901Z,7.90
2019-03-27T06:45:23.688Z,7.90
2019-03-27T06:47:54.354Z,8.00
2019-03-27T06:50:25.096Z,8.00
2019-03-27T06:52:55.859Z,8.00
2019-03-27T06:55:26.669Z,8.00
2019-03-27T06:57:57.498Z,8.00
2019-03-27T07:00:38.666Z,7.90
2019-03-27T07:03:09.498Z,7.80
2019-03-27T07:05:40.233Z,7.70
2019-03-27T07:08:10.945Z,7.70
2019-03-27T07:10:50.936Z,7.70
2019-03-27T07:13:22.173Z,7.70
2019-03-27T07:15:52.798Z,7.70
2019-03-27T07:18:23.528Z,7.70
2019-03-27T07:20:54.909Z,7.70
2019-03-27T07:23:25.710Z,7.70
2019-03-27T07:25:56.455Z,7.70
2019-03-27T07:28:27.246Z,7.70
2019-03-27T07:30:58.126Z,7.60
2019-03-27T07:33:29.080Z,7.70
2019-03-27T07:36:00.705Z,7.70
2019-03-27T07:38:32.591Z,7.80
2019-03-27T07:41:03.439Z,7.90
2019-03-27T07:43:34.883Z,8.10
2019-03-27T07:46:07.381Z,8.30
2019-03-27T07:48:38.160Z,8.50
2019-03-27T07:51:08.893Z,8.70
2019-03-27T07:53:39.670Z,8.80
2019-03-27T07:56:10.463Z,8.90
2019-03-27T07:58:41.097Z,9.00
2019-03-27T08:01:11.877Z,9.10
2019-03-27T08:03:42.664Z,9.10
2019-03-27T08:06:13.406Z,9.20
2019-03-27T08:08:44.174Z,9.50
2019-03-27T08:11:14.992Z,9.60
2019-03-27T08:13:45.683Z,9.70
2019-03-27T08:16:16.404Z,9.70
2019-03-27T08:18:47.198Z,9.70
2019-03-27T08:21:18.053Z,9.80
2019-03-27T08:23:48.862Z,9.90
2019-03-27T08:26:19.773Z,10.10
2019-03-27T08:28:50.497Z,10.20
2019-03-27T08:31:21.314Z,10.30
2019-03-27T08:33:52.063Z,10.50
2019-03-27T08:36:22.843Z,10.60
2019-03-27T08:38:53.594Z,10.70
2019-03-27T08:41:24.271Z,10.80
2019-03-27T08:43:54.917Z,10.80
2019-03-27T08:46:25.602Z,10.90
2019-03-27T08:48:56.263Z,11.00
2019-03-27T08:51:26.986Z,11.10
2019-03-27T08:53:57.857Z,11.20
2019-03-27T08:56:28.610Z,11.30
2019-03-27T08:58:59.460Z,11.40
2019-03-27T09:01:30.357Z,11.50
2019-03-27T09:04:01.137Z,11.60
2019-03-27T09:06:34.115Z,11.70
2019-03-27T09:09:06.699Z,11.80
2019-03-27T09:11:37.592Z,12.00
2019-03-27T09:14:08.310Z,12.10
2019-03-27T09:16:39.121Z,12.20
2019-03-27T09:19:09.893Z,12.30
2019-03-27T09:21:40.614Z,12.50
2019-03-27T09:24:11.461Z,12.60
2019-03-27T09:26:42.298Z,12.70
2019-03-27T09:29:12.880Z,12.80
2019-03-27T09:31:45.166Z,12.80
2019-03-27T09:34:17.690Z,12.90
2019-03-27T09:36:48.507Z,13.00
2019-03-27T09:39:19.335Z,13.10
2019-03-27T09:41:50.046Z,13.30
2019-03-27T09:44:20.953Z,13.50
2019-03-27T09:46:51.732Z,13.50
2019-03-27T09:49:22.583Z,13.60
2019-03-27T09:51:53.369Z,13.60
2019-03-27T09:54:24.054Z,13.60
2019-03-27T09:56:54.688Z,13.60
2019-03-27T09:59:25.358Z,13.60
2019-03-27T10:01:56.072Z,13.70
2019-03-27T10:04:26.911Z,13.80
2019-03-27T10:06:57.822Z,13.90
2019-03-27T10:09:28.587Z,14.00
2019-03-27T10:11:59.334Z,14.00
2019-03-27T10:14:30.173Z,14.00
2019-03-27T10:17:00.954Z,14.10
2019-03-27T10:19:31.668Z,14.20
2019-03-27T10:22:02.216Z,14.30
2019-03-27T10:24:33.031Z,14.50
2019-03-27T10:27:03.670Z,14.60
2019-03-27T10:29:34.482Z,14.70
2019-03-27T10:32:05.351Z,14.80
2019-03-27T10:34:36.098Z,14.90
2019-03-27T10:37:06.797Z,14.90
2019-03-27T10:39:37.437Z,15.00
2019-03-27T10:42:08.089Z,15.10
2019-03-27T10:44:38.777Z,15.20
2019-03-27T10:47:09.533Z,15.40
2019-03-27T10:49:40.211Z,15.50
2019-03-27T10:52:10.972Z,15.50
2019-03-27T10:54:41.779Z,15.60
2019-03-27T10:57:12.610Z,15.50
2019-03-27T10:59:43.507Z,15.50
2019-03-27T11:02:14.189Z,15.60
2019-03-27T11:04:44.959Z,15.60
2019-03-27T11:07:15.759Z,15.60
2019-03-27T11:09:46.565Z,15.60
2019-03-27T11:12:17.300Z,15.60
2019-03-27T11:14:48.070Z,15.70
2019-03-27T11:17:18.960Z,15.70
2019-03-27T11:19:49.687Z,15.80
2019-03-27T11:22:20.482Z,16.00
2019-03-27T11:24:51.310Z,16.00
2019-03-27T11:27:22.128Z,16.10
2019-03-27T11:29:52.935Z,16.00
2019-03-27T11:32:23.676Z,16.10
2019-03-27T11:34:54.400Z,16.50
2019-03-27T11:37:25.189Z,17.00
2019-03-27T11:39:55.958Z,17.60
2019-03-27T11:42:28.016Z,17.80
2019-03-27T11:44:58.914Z,17.90
2019-03-27T11:47:29.295Z,18.10
2019-03-27T11:50:00.026Z,18.40
2019-03-27T11:52:30.716Z,18.70
2019-03-27T11:55:01.486Z,19.30
2019-03-27T11:57:32.210Z,19.50
2019-03-27T12:00:03.746Z,19.40
2019-03-27T12:02:34.814Z,19.50
2019-03-27T12:05:05.939Z,19.60
2019-03-27T12:07:36.776Z,19.70
2019-03-27T12:10:08.668Z,19.90
2019-03-27T12:12:39.369Z,20.20
2019-03-27T12:15:11.321Z,20.50
2019-03-27T12:17:42.174Z,20.50
2019-03-27T12:20:13.418Z,20.30
2019-03-27T12:22:56.947Z,20.50
2019-03-27T12:25:16.670Z,20.90
2019-03-27T12:27:47.434Z,21.30
2019-03-27T12:30:18.313Z,21.30
2019-03-27T12:32:49.057Z,20.70
2019-03-27T12:35:19.881Z,20.50
2019-03-27T12:37:50.611Z,20.80
2019-03-27T12:40:21.336Z,20.90
2019-03-27T12:42:52.141Z,21.10
2019-03-27T12:45:22.608Z,21.20
2019-03-27T12:47:53.238Z,21.30
2019-03-27T12:50:24.177Z,21.40
2019-03-27T12:52:55.001Z,21.90
2019-03-27T12:55:25.750Z,22.30
2019-03-27T12:57:56.450Z,22.30
2019-03-27T13:00:27.245Z,22.50
2019-03-27T13:02:58.173Z,22.60
2019-03-27T13:05:29.029Z,22.90
2019-03-27T13:08:00.014Z,22.70
2019-03-27T13:10:30.762Z,22.80
2019-03-27T13:13:01.517Z,22.60
2019-03-27T13:15:32.313Z,22.30
2019-03-27T13:18:03.067Z,22.20
2019-03-27T13:20:33.833Z,22.80
2019-03-27T13:23:05.126Z,23.30
2019-03-27T13:25:35.917Z,23.60
2019-03-27T13:28:06.751Z,23.60
2019-03-27T13:30:37.553Z,23.80
2019-03-27T13:33:08.165Z,23.80
2019-03-27T13:35:38.934Z,23.70
2019-03-27T13:38:09.719Z,23.80
2019-03-27T13:40:40.477Z,24.20
2019-03-27T13:43:11.269Z,24.60
2019-03-27T13:45:42.018Z,24.80
2019-03-27T13:48:12.782Z,24.70
2019-03-27T13:50:43.553Z,24.40
2019-03-27T13:53:14.249Z,23.90
2019-03-27T13:55:44.970Z,23.70
2019-03-27T13:58:15.781Z,24.00
2019-03-27T14:00:46.414Z,24.40
2019-03-27T14:03:17.111Z,24.80
2019-03-27T14:05:47.883Z,25.40
2019-03-27T14:08:18.639Z,25.80
2019-03-27T14:10:49.365Z,25.90
2019-03-27T14:13:20.051Z,26.00
2019-03-27T14:15:50.867Z,26.60
2019-03-27T14:18:21.719Z,26.60
2019-03-27T14:20:52.618Z,26.50
2019-03-27T14:23:23.338Z,26.10
2019-03-27T14:25:54.080Z,25.20
2019-03-27T14:28:24.910Z,24.50
2019-03-27T14:30:57.085Z,24.10
2019-03-27T14:33:27.819Z,24.20
2019-03-27T14:35:58.593Z,24.80
2019-03-27T14:38:29.399Z,25.10
2019-03-27T14:41:00.102Z,25.30
2019-03-27T14:43:30.899Z,25.40
2019-03-27T14:46:01.817Z,25.10
2019-03-27T14:48:32.623Z,24.80
2019-03-27T14:51:03.505Z,24.60
2019-03-27T14:53:34.346Z,24.90
2019-03-27T14:56:05.171Z,24.50
2019-03-27T14:58:36.073Z,24.50
2019-03-27T15:01:06.786Z,24.80
2019-03-27T15:03:37.519Z,25.50
2019-03-27T15:06:08.314Z,25.50
2019-03-27T15:08:38.998Z,24.70
2019-03-27T15:11:09.625Z,24.60
2019-03-27T15:13:40.426Z,24.30
2019-03-27T15:16:11.409Z,24.20
2019-03-27T15:18:42.148Z,24.00
2019-03-27T15:21:12.923Z,24.00
2019-03-27T15:23:44.667Z,24.30
2019-03-27T15:26:15.527Z,24.60
2019-03-27T15:28:51.090Z,24.80
2019-03-27T15:31:23.531Z,25.30
2019-03-27T15:33:55.731Z,25.30
2019-03-27T15:36:30.812Z,25.20
2019-03-27T15:39:04.641Z,25.20
2019-03-27T15:41:38.346Z,25.10
2019-03-27T15:44:09.119Z,24.80
2019-03-27T15:46:39.909Z,24.90
2019-03-27T15:49:10.750Z,24.80
2019-03-27T15:51:41.480Z,24.60
2019-03-27T15:54:12.374Z,24.40
2019-03-27T15:56:42.993Z,24.20
2019-03-27T15:59:13.842Z,24.20
2019-03-27T16:01:44.524Z,24.40
2019-03-27T16:04:15.331Z,24.40
2019-03-27T16:06:46.135Z,24.30
2019-03-27T16:09:17.796Z,24.20
2019-03-27T16:11:48.572Z,24.10
2019-03-27T16:14:19.352Z,24.00
2019-03-27T16:17:06.767Z,24.00
2019-03-27T16:19:22.562Z,23.90
2019-03-27T16:21:52.974Z,23.50
2019-03-27T16:24:23.777Z,23.30
2019-03-27T16:27:04.337Z,23.10
2019-03-27T16:29:27.087Z,22.80
2019-03-27T16:31:57.880Z,22.70
2019-03-27T16:34:28.594Z,22.60
2019-03-27T16:36:59.445Z,22.50
2019-03-27T16:39:30.151Z,22.30
2019-03-27T16:42:00.917Z,22.30
2019-03-27T16:44:31.599Z,22.60
2019-03-27T16:47:02.254Z,22.70
2019-03-27T16:49:32.875Z,22.50
2019-03-27T16:52:03.577Z,22.20
2019-03-27T16:54:34.247Z,22.00
2019-03-27T16:57:04.984Z,21.90
2019-03-27T16:59:35.762Z,21.60
2019-03-27T17:02:10.178Z,21.30
2019-03-27T17:04:40.977Z,21.20
2019-03-27T17:07:11.765Z,20.50
2019-03-27T17:09:42.538Z,19.60
2019-03-27T17:12:13.345Z,19.40
2019-03-27T17:14:44.120Z,19.20
2019-03-27T17:17:14.854Z,19.00
2019-03-27T17:19:45.646Z,18.80
2019-03-27T17:22:19.637Z,18.60
2019-03-27T17:24:48.886Z,18.30
2019-03-27T17:27:19.564Z,18.00
2019-03-27T17:29:50.255Z,17.60
2019-03-27T17:32:20.885Z,17.20
2019-03-27T17:34:52.071Z,16.70
2019-03-27T17:37:22.967Z,16.30
2019-03-27T17:39:53.682Z,15.80
2019-03-27T17:42:24.511Z,15.30
2019-03-27T17:44:55.309Z,14.70
2019-03-27T17:47:26.011Z,14.30
2019-03-27T17:49:57.058Z,13.90
2019-03-27T17:52:27.906Z,13.50
2019-03-27T17:54:58.710Z,13.20
2019-03-27T17:57:29.439Z,12.90
2019-03-27T18:00:00.099Z,12.60
2019-03-27T18:02:30.957Z,12.30
2019-03-27T18:05:04.686Z,12.10
2019-03-27T18:07:35.492Z,11.90
2019-03-27T18:10:06.442Z,11.70
2019-03-27T18:12:37.278Z,11.60
2019-03-27T18:15:08.544Z,11.40
2019-03-27T18:17:39.258Z,11.30
2019-03-27T18:20:10.305Z,11.20
2019-03-27T18:22:41.079Z,11.00
2019-03-27T18:25:15.175Z,10.90
2019-03-27T18:27:46.094Z,10.70
2019-03-27T18:30:17.127Z,10.60
2019-03-27T18:32:47.853Z,10.30
2019-03-27T18:35:18.656Z,10.10
2019-03-27T18:37:54.291Z,9.80
2019-03-27T18:40:26.230Z,9.60
2019-03-27T18:42:58.026Z,9.40
2019-03-27T18:45:28.808Z,9.30
2019-03-27T18:48:00.148Z,9.20
2019-03-27T18:50:31.769Z,9.10
2019-03-27T18:53:03.703Z,9.00
2019-03-27T18:55:35.467Z,8.90
2019-03-27T18:58:08.878Z,8.80
2019-03-27T19:00:40.223Z,8.70
2019-03-27T19:03:12.837Z,8.60
2019-03-27T19:05:45.409Z,8.60
2019-03-27T19:08:16.795Z,8.60
2019-03-27T19:10:48.781Z,8.50
2019-03-27T19:13:20.081Z,8.50
2019-03-27T19:15:51.610Z,8.50
2019-03-27T19:18:23.030Z,8.40
2019-03-27T19:20:55.475Z,8.40
2019-03-27T19:23:28.078Z,8.40
2019-03-27T19:25:59.013Z,8.30
2019-03-27T19:28:29.621Z,8.20
2019-03-27T19:31:00.257Z,8.10
2019-03-27T19:33:31.033Z,8.00
2019-03-27T19:36:01.741Z,8.00
2019-03-27T19:38:32.462Z,7.90
2019-03-27T19:41:03.169Z,7.90
2019-03-27T19:43:33.827Z,7.90
2019-03-27T19:46:04.543Z,7.80
2019-03-27T19:48:35.268Z,7.80
2019-03-27T19:51:06.083Z,7.70
2019-03-27T19:53:36.918Z,7.70
2019-03-27T19:56:07.747Z,7.70
2019-03-27T19:58:38.549Z,7.70
2019-03-27T20:01:09.790Z,7.60
2019-03-27T20:03:40.461Z,7.60
2019-03-27T20:06:11.358Z,7.60
2019-03-27T20:08:42.096Z,7.50
2019-03-27T20:11:12.783Z,7.60
2019-03-27T20:13:43.462Z,7.60
2019-03-27T20:16:14.132Z,7.60
2019-03-27T20:18:45.002Z,7.60
2019-03-27T20:21:15.805Z,7.40
2019-03-27T20:23:46.654Z,7.30
2019-03-27T20:26:17.461Z,7.20
2019-03-27T20:28:48.249Z,7.00
2019-03-27T20:31:18.963Z,6.90
2019-03-27T20:33:49.677Z,6.90
2019-03-27T20:36:20.570Z,6.80
2019-03-27T20:38:51.262Z,6.70
2019-03-27T20:41:22.050Z,6.60
2019-03-27T20:43:52.753Z,6.50
2019-03-27T20:46:25.397Z,6.40
2019-03-27T20:48:56.260Z,6.40
2019-03-27T20:51:27.011Z,6.50
2019-03-27T20:53:57.730Z,6.60
2019-03-27T20:56:28.440Z,6.70
2019-03-27T20:59:01.313Z,6.60
2019-03-27T21:01:31.633Z,6.50
2019-03-27T21:04:02.523Z,6.40
2019-03-27T21:06:33.241Z,6.30
2019-03-27T21:09:04.056Z,6.30
2019-03-27T21:11:34.974Z,6.30
2019-03-27T21:14:05.793Z,6.50
2019-03-27T21:16:36.716Z,6.60
2019-03-27T21:19:07.437Z,6.80
2019-03-27T21:21:38.163Z,7.00
2019-03-27T21:24:08.863Z,7.10
2019-03-27T21:26:39.673Z,7.10
2019-03-27T21:29:10.473Z,7.10
2019-03-27T21:31:41.257Z,7.00
2019-03-27T21:34:12.013Z,6.90
2019-03-27T21:36:42.770Z,6.80
2019-03-27T21:39:13.552Z,6.70
2019-03-27T21:41:44.396Z,6.60
2019-03-27T21:44:15.222Z,6.50
2019-03-27T21:46:46.121Z,6.40
2019-03-27T21:49:16.819Z,6.30
2019-03-27T21:51:47.570Z,6.10
2019-03-27T21:54:18.413Z,6.10
2019-03-27T21:56:49.121Z,6.00
2019-03-27T21:59:19.866Z,6.00
2019-03-27T22:01:50.647Z,6.00
2019-03-27T22:04:21.552Z,6.00
2019-03-27T22:06:52.273Z,5.90
2019-03-27T22:09:23.163Z,5.80
2019-03-27T22:11:54.086Z,5.80
2019-03-27T22:14:24.849Z,5.90
2019-03-27T22:16:55.716Z,5.80
2019-03-27T22:19:26.404Z,5.90
2019-03-27T22:21:57.183Z,6.00
2019-03-27T22:24:27.901Z,6.00
2019-03-27T22:26:58.542Z,6.00
2019-03-27T22:29:29.331Z,6.00
2019-03-27T22:32:00.078Z,6.00
2019-03-27T22:34:30.817Z,5.90
2019-03-27T22:37:01.514Z,5.90
2019-03-27T22:39:32.398Z,5.90
2019-03-27T22:42:03.101Z,6.00
2019-03-27T22:44:33.893Z,6.00
2019-03-27T22:47:04.693Z,6.00
2019-03-27T22:49:35.570Z,5.90
2019-03-27T22:52:06.289Z,6.00
2019-03-27T22:54:37.138Z,6.00
2019-03-27T22:57:07.973Z,5.90
2019-03-27T22:59:38.699Z,5.90
2019-03-27T23:02:09.680Z,5.80
2019-03-27T23:04:40.385Z,5.80
2019-03-27T23:07:11.019Z,5.70
2019-03-27T23:09:41.806Z,5.70
2019-03-27T23:12:12.614Z,5.70
2019-03-27T23:14:43.438Z,5.70
2019-03-27T23:17:14.328Z,5.60
2019-03-27T23:19:45.084Z,5.70
2019-03-27T23:22:15.818Z,5.80
2019-03-27T23:24:46.589Z,5.90
2019-03-27T23:27:17.384Z,6.00
2019-03-27T23:29:48.107Z,6.10
2019-03-27T23:32:18.875Z,6.10
2019-03-27T23:34:49.671Z,6.00
2019-03-27T23:37:20.559Z,6.00
2019-03-27T23:39:51.462Z,6.00
2019-03-27T23:42:22.241Z,6.00
2019-03-27T23:44:53.037Z,5.90
2019-03-27T23:47:23.841Z,5.90
2019-03-27T23:49:54.595Z,6.00
2019-03-27T23:52:25.203Z,6.10
2019-03-27T23:54:55.998Z,6.00
2019-03-27T23:57:26.785Z,6.00
2019-03-27T23:59:57.525Z,6.00
